createdAt,value
2023-04-10T00:00:43.744Z,23.80
2023-04-10T00:03:22.303Z,23.50
2023-04-10T00:05:50.577Z,22.20
2023-04-10T00:08:18.310Z,21.50
2023-04-10T00:10:46.216Z,23.30
2023-04-10T00:13:14.892Z,25.30
2023-04-10T00:15:43.043Z,27.00
2023-04-10T00:18:11.147Z,25.70
2023-04-10T00:20:38.998Z,24.60
2023-04-10T00:23:06.865Z,26.20
2023-04-10T00:25:35.640Z,25.50
2023-04-10T00:28:03.670Z,25.70
2023-04-10T00:30:31.560Z,24.20
2023-04-10T00:32:59.493Z,24.20
2023-04-10T00:35:28.263Z,23.40
2023-04-10T00:37:57.028Z,24.70
2023-04-10T00:40:25.008Z,23.40
2023-04-10T00:42:52.985Z,23.90
2023-04-10T00:45:20.854Z,23.40
2023-04-10T00:47:48.768Z,22.50
2023-04-10T00:50:16.794Z,21.70
2023-04-10T00:52:44.761Z,23.50
2023-04-10T00:55:12.944Z,22.30
2023-04-10T00:57:44.217Z,22.60
2023-04-10T01:00:13.237Z,24.00
2023-04-10T01:02:41.535Z,25.30
2023-04-10T01:05:11.043Z,22.90
2023-04-10T01:07:47.328Z,22.40
2023-04-10T01:10:18.336Z,22.50
2023-04-10T01:12:52.319Z,21.70
2023-04-10T01:15:21.302Z,22.40
2023-04-10T01:17:52.492Z,19.90
2023-04-10T01:20:24.336Z,20.90
2023-04-10T01:23:04.488Z,20.90
2023-04-10T01:25:44.976Z,21.60
2023-04-10T01:28:16.704Z,22.70
2023-04-10T01:30:47.238Z,22.20
2023-04-10T01:33:22.633Z,22.50
2023-04-10T01:35:52.548Z,23.30
2023-04-10T01:38:21.530Z,22.30
2023-04-10T01:40:52.550Z,23.00
2023-04-10T01:43:21.112Z,22.60
2023-04-10T01:45:51.272Z,24.20
2023-04-10T01:48:20.534Z,22.50
2023-04-10T01:50:48.813Z,23.10
2023-04-10T01:53:17.185Z,22.80
2023-04-10T01:55:44.974Z,23.40
2023-04-10T01:58:13.177Z,26.50
2023-04-10T02:00:44.656Z,26.70
2023-04-10T02:03:12.882Z,22.20
2023-04-10T02:05:41.013Z,20.10
2023-04-10T02:08:12.741Z,17.60
2023-04-10T02:10:40.637Z,17.10
2023-04-10T02:13:10.429Z,15.60
2023-04-10T02:15:40.491Z,16.10
2023-04-10T02:18:10.402Z,14.60
2023-04-10T02:20:38.242Z,14.50
2023-04-10T02:23:06.780Z,15.30
2023-04-10T02:25:35.322Z,13.50
2023-04-10T02:28:06.471Z,13.60
2023-04-10T02:30:35.874Z,13.60
2023-04-10T02:33:04.528Z,13.30
2023-04-10T02:35:33.204Z,15.80
2023-04-10T02:38:01.085Z,15.20
2023-04-10T02:40:28.910Z,14.90
2023-04-10T02:42:57.040Z,14.00
2023-04-10T02:45:24.916Z,14.60
2023-04-10T02:47:52.808Z,15.50
2023-04-10T02:50:20.978Z,15.80
2023-04-10T02:52:48.795Z,13.60
2023-04-10T02:55:16.828Z,14.40
2023-04-10T02:57:44.727Z,13.30
2023-04-10T03:00:15.152Z,11.70
2023-04-10T03:02:43.134Z,12.30
2023-04-10T03:05:11.725Z,13.40
2023-04-10T03:07:39.856Z,12.70
2023-04-10T03:10:08.585Z,14.70
2023-04-10T03:12:36.456Z,14.90
2023-04-10T03:15:04.541Z,13.50
2023-04-10T03:17:32.402Z,13.10
2023-04-10T03:20:01.082Z,13.00
2023-04-10T03:22:31.968Z,13.80
2023-04-10T03:24:59.752Z,13.20
2023-04-10T03:27:27.624Z,13.30
2023-04-10T03:29:55.483Z,14.50
2023-04-10T03:32:23.227Z,14.30
2023-04-10T03:34:51.011Z,14.80
2023-04-10T03:37:19.594Z,14.50
2023-04-10T03:39:47.301Z,14.30
2023-04-10T03:42:15.432Z,14.10
2023-04-10T03:44:43.190Z,14.80
2023-04-10T03:47:11.151Z,15.30
2023-04-10T03:49:39.232Z,16.30
2023-04-10T03:52:07.549Z,16.80
2023-04-10T03:54:35.520Z,16.30
2023-04-10T03:57:03.431Z,14.90
2023-04-10T03:59:38.244Z,14.20
2023-04-10T04:02:07.721Z,15.90
2023-04-10T04:04:35.759Z,15.50
2023-04-10T04:07:03.766Z,17.20
2023-04-10T04:09:31.617Z,16.60
2023-04-10T04:11:59.332Z,18.40
2023-04-10T04:14:27.419Z,18.00
2023-04-10T04:16:55.330Z,18.10
2023-04-10T04:19:22.965Z,18.10
2023-04-10T04:21:51.215Z,19.90
2023-04-10T04:24:19.590Z,19.40
2023-04-10T04:26:47.444Z,18.50
2023-04-10T04:29:15.658Z,19.50
2023-04-10T04:31:43.536Z,20.00
2023-04-10T04:34:11.379Z,19.80
2023-04-10T04:36:39.126Z,20.10
2023-04-10T04:39:07.160Z,20.30
2023-04-10T04:41:35.494Z,19.90
2023-04-10T04:44:03.451Z,21.10
2023-04-10T04:46:31.613Z,22.90
2023-04-10T04:49:00.480Z,20.60
2023-04-10T04:51:28.268Z,21.80
2023-04-10T04:53:56.782Z,20.70
2023-04-10T04:56:24.785Z,21.10
2023-04-10T04:58:52.696Z,21.40
2023-04-10T05:01:21.242Z,21.50
2023-04-10T05:03:49.082Z,21.60
2023-04-10T05:06:18.906Z,23.30
2023-04-10T05:08:46.736Z,24.40
2023-04-10T05:11:14.488Z,23.70
2023-04-10T05:13:42.342Z,23.70
2023-04-10T05:16:10.619Z,23.90
2023-04-10T05:18:38.500Z,24.20
2023-04-10T05:21:06.653Z,25.50
2023-04-10T05:23:34.501Z,26.00
2023-04-10T05:26:02.648Z,26.40
2023-04-10T05:28:30.965Z,26.30
2023-04-10T05:30:59.004Z,25.90
2023-04-10T05:33:27.308Z,26.80
2023-04-10T05:35:56.801Z,28.10
2023-04-10T05:38:25.071Z,29.10
2023-04-10T05:40:53.165Z,29.00
2023-04-10T05:43:21.908Z,28.50
2023-04-10T05:45:49.683Z,26.10
2023-04-10T05:48:17.574Z,26.30
2023-04-10T05:50:46.476Z,26.50
2023-04-10T05:53:15.080Z,26.90
2023-04-10T05:55:43.392Z,26.90
2023-04-10T05:58:11.643Z,26.30
2023-04-10T06:00:39.874Z,27.80
2023-04-10T06:03:08.102Z,26.20
2023-04-10T06:05:36.220Z,26.60
2023-04-10T06:08:04.294Z,25.80
2023-04-10T06:10:32.975Z,26.90
2023-04-10T06:13:00.964Z,26.10
2023-04-10T06:15:29.096Z,26.90
2023-04-10T06:17:57.004Z,26.80
2023-04-10T06:20:25.411Z,26.10
2023-04-10T06:22:53.736Z,25.80
2023-04-10T06:25:21.848Z,26.20
2023-04-10T06:27:49.695Z,26.20
2023-04-10T06:30:17.708Z,27.40
2023-04-10T06:32:46.481Z,26.50
2023-04-10T06:35:14.692Z,28.70
2023-04-10T06:37:42.882Z,28.10
2023-04-10T06:40:11.760Z,29.10
2023-04-10T06:42:39.544Z,30.80
2023-04-10T06:45:08.118Z,30.50
2023-04-10T06:47:36.119Z,29.20
2023-04-10T06:50:04.263Z,29.70
2023-04-10T06:52:32.501Z,29.40
2023-04-10T06:55:00.976Z,30.90
2023-04-10T06:57:29.396Z,30.10
2023-04-10T06:59:57.667Z,30.20
2023-04-10T07:02:25.693Z,29.40
2023-04-10T07:04:53.916Z,28.00
2023-04-10T07:07:22.192Z,28.20
2023-04-10T07:09:50.690Z,28.70
2023-04-10T07:12:18.649Z,28.00
2023-04-10T07:14:48.977Z,27.20
2023-04-10T07:17:18.246Z,27.90
2023-04-10T07:19:46.442Z,27.90
2023-04-10T07:22:16.007Z,28.70
2023-04-10T07:24:44.457Z,28.10
2023-04-10T07:27:13.105Z,25.90
2023-04-10T07:29:41.386Z,24.10
2023-04-10T07:32:10.969Z,25.10
2023-04-10T07:34:39.259Z,25.90
2023-04-10T07:37:07.335Z,25.50
2023-04-10T07:39:36.020Z,25.60
2023-04-10T07:42:11.345Z,26.90
2023-04-10T07:44:43.063Z,27.50
2023-04-10T07:47:11.580Z,26.00
2023-04-10T07:49:39.661Z,27.20
2023-04-10T07:52:07.528Z,25.60
2023-04-10T07:54:36.321Z,25.10
2023-04-10T07:57:04.219Z,24.80
2023-04-10T07:59:33.277Z,23.60
2023-04-10T08:02:01.424Z,24.20
2023-04-10T08:04:29.604Z,24.30
2023-04-10T08:06:58.041Z,22.70
2023-04-10T08:09:26.281Z,24.20
2023-04-10T08:11:54.254Z,25.00
2023-04-10T08:14:22.043Z,23.90
2023-04-10T08:16:49.931Z,26.20
2023-04-10T08:19:17.868Z,24.50
2023-04-10T08:21:45.912Z,24.00
2023-04-10T08:24:14.094Z,25.60
2023-04-10T08:26:42.473Z,24.50
2023-04-10T08:29:10.935Z,23.00
2023-04-10T08:31:39.113Z,22.90
2023-04-10T08:34:07.089Z,24.00
2023-04-10T08:36:35.062Z,24.00
2023-04-10T08:39:03.329Z,23.60
2023-04-10T08:41:31.604Z,21.90
2023-04-10T08:43:59.570Z,22.10
2023-04-10T08:46:29.263Z,23.00
